Terminal Aerodrome Forecast
Issued by NWS

Home | Current Version | Previous Version | Text Only | Print | Product List | Glossary On
Versions: 1 2 3 4 5 6 7 8 9 10 11
000
FTUS41 KBTV 031120
TAFRUT
TAF
KRUT 031120Z 0312/0412 15008KT P6SM SCT150
     FM031300 19013G22KT P6SM SCT060 BKN150
     FM031800 20013G23KT P6SM VCSH BKN040 BKN120
     FM032000 19010KT 6SM +SHRA BKN040 BKN100
     FM040100 23010KT P6SM VCSH BKN060
      AMD NOT SKED=

USA.gov is the U.S. government's official web portal to all federal, state and local government web resources and services.